Terminal Aerodrome Forecast
Issued by NWS Kansas City/Pleasant Hill, MO

Home | Current Version | Previous Version | Text Only | Print | Product List | Glossary On
Versions: 1 2 3 4 5 6 7 8 9 10 11 12 13 14
211
FTUS43 KEAX 031120
TAFMCI
TAF
KMCI 031120Z 0312/0412 09007KT P6SM BKN100
     FM040200 15006KT P6SM VCSH OVC025
     FM040600 16005KT 4SM -SHRA OVC012=

USA.gov is the U.S. government's official web portal to all federal, state and local government web resources and services.